Time;durP1;ratioP1;P1;durP2;ratioP2;P2;SDS_P1;SDS_P2;PMS_P1;PMS_P2;Temp;Humidity;BMP_temperature;BMP_pressure;BME280_temperature;BME280_humidity;BME280_pressure;Samples;Min_cycle;Max_cycle;Signal;HPM_P1;HPM_P2
2021/11/09 00:02:07;;;;;;;21.45;14.90;;;282.50;2073.60;;;;;;5054718;28;20074;-63
2021/11/09 00:04:38;;;;;;;18.15;12.15;;;282.50;2073.60;;;;;;5054518;28;20025;-63
2021/11/09 00:07:23;;;;;;;25.10;17.23;;;282.50;2048.00;;;;;;5054811;28;20086;-62
2021/11/09 00:10:07;;;;;;;;;;;282.50;2073.60;;;;;;5055130;28;20033;-63
2021/11/09 00:12:37;;;;;;;35.47;22.55;;;282.50;2073.60;;;;;;5054556;28;19908;-61
2021/11/09 00:15:05;;;;;;;88.25;41.83;;;282.50;2073.60;;;;;;5054499;28;20499;-63
2021/11/09 00:17:31;;;;;;;85.57;44.47;;;282.50;2073.60;;;;;;5054568;28;20103;-63
2021/11/09 00:19:57;;;;;;;140.77;66.35;;;282.50;2073.60;;;;;;5055024;28;20025;-63
2021/11/09 00:22:24;;;;;;;158.35;75.50;;;282.50;2073.60;;;;;;5054357;28;20025;-63
2021/11/09 00:24:51;;;;;;;177.52;77.65;;;282.50;2073.60;;;;;;5053657;28;20477;-61
2021/11/09 00:27:17;;;;;;;89.43;43.45;;;282.50;2073.60;;;;;;5052805;28;20393;-62
2021/11/09 00:29:44;;;;;;;42.67;24.63;;;282.50;2073.60;;;;;;5053588;28;20028;-63
2021/11/09 00:32:10;;;;;;;29.88;17.85;;;282.50;2073.60;;;;;;5054289;28;20431;-61
2021/11/09 00:34:36;;;;;;;23.52;15.32;;;282.50;2073.60;;;;;;5054264;28;20059;-63
2021/11/09 00:37:04;;;;;;;28.55;17.95;;;282.50;2099.20;;;;;;5054032;28;20064;-61
2021/11/09 00:39:30;;;;;;;93.18;49.67;;;282.50;2099.20;;;;;;5053737;28;20024;-62
2021/11/09 00:41:56;;;;;;;75.68;42.10;;;307.20;2099.20;;;;;;5053872;28;20025;-64
2021/11/09 00:44:23;;;;;;;56.20;32.47;;;282.50;2099.20;;;;;;5054121;28;20104;-63
2021/11/09 00:46:50;;;;;;;40.35;25.13;;;307.20;2099.20;;;;;;5053932;28;20031;-62
2021/11/09 00:49:16;;;;;;;31.23;19.88;;;307.20;2099.20;;;;;;5054165;28;20078;-62
2021/11/09 00:51:44;;;;;;;31.48;19.63;;;307.20;2124.80;;;;;;5054044;28;20021;-62
2021/11/09 00:54:10;;;;;;;36.67;23.85;;;307.20;2099.20;;;;;;5053028;28;20440;-62
2021/11/09 00:56:37;;;;;;;87.60;53.60;;;307.20;2099.20;;;;;;5054255;28;20442;-63
2021/11/09 00:59:04;;;;;;;95.53;55.65;;;307.20;2099.20;;;;;;5054033;28;20044;-63
2021/11/09 01:01:30;;;;;;;75.93;47.58;;;307.20;2099.20;;;;;;5053832;28;20059;-63
2021/11/09 01:03:56;;;;;;;78.28;45.25;;;307.20;2099.20;;;;;;5053294;28;20053;-62
2021/11/09 01:06:22;;;;;;;120.15;64.25;;;307.20;2099.20;;;;;;5053217;28;20493;-63
2021/11/09 01:08:48;;;;;;;101.68;55.47;;;307.20;2099.20;;;;;;5053744;28;20021;-62
2021/11/09 01:11:14;;;;;;;48.80;30.00;;;307.20;2099.20;;;;;;5053685;28;20462;-61
2021/11/09 01:13:40;;;;;;;32.40;21.10;;;307.20;2099.20;;;;;;5053575;28;20033;-62
2021/11/09 01:16:06;;;;;;;28.23;17.17;;;307.20;2099.20;;;;;;5053605;28;20052;-62
2021/11/09 01:18:44;;;;;;;24.38;15.32;;;307.20;2099.20;;;;;;5053656;28;20143;-63
2021/11/09 01:21:13;;;;;;;19.98;14.20;;;307.20;2099.20;;;;;;5053653;28;20033;-63
2021/11/09 01:23:40;;;;;;;21.77;14.73;;;282.50;2073.60;;;;;;5053347;28;20478;-62
2021/11/09 01:26:07;;;;;;;19.85;14.35;;;282.50;2073.60;;;;;;5053648;28;20040;-64
2021/11/09 01:28:34;;;;;;;22.77;16.25;;;282.50;2073.60;;;;;;5053484;28;20029;-62
2021/11/09 01:31:00;;;;;;;21.77;15.85;;;282.50;2099.20;;;;;;5053766;28;20025;-63
2021/11/09 01:33:26;;;;;;;23.08;16.73;;;282.50;2073.60;;;;;;5053442;28;20116;-63
2021/11/09 01:35:52;;;;;;;25.90;17.13;;;282.50;2099.20;;;;;;5053032;28;20033;-63
2021/11/09 01:38:19;;;;;;;25.25;15.98;;;282.50;2073.60;;;;;;5056595;28;20027;-63
2021/11/09 01:40:46;;;;;;;26.58;18.10;;;282.50;2048.00;;;;;;5057281;28;20029;-62
2021/11/09 01:43:14;;;;;;;22.63;15.75;;;282.40;2073.60;;;;;;5057169;28;20477;-63
2021/11/09 01:45:40;;;;;;;22.50;16.27;;;282.40;2073.60;;;;;;5057832;28;20378;-62
2021/11/09 01:58:25;;;;;;;19.50;13.68;;;282.40;2073.60;;;;;;5056958;28;20025;-63
2021/11/09 02:00:55;;;;;;;20.88;13.85;;;282.30;2073.60;;;;;;5055965;28;20478;-63
2021/11/09 02:11:02;;;;;;;21.00;12.60;;;282.30;2048.00;;;;;;5056977;28;20029;-63
2021/11/09 02:13:29;;;;;;;18.02;11.68;;;282.20;2022.40;;;;;;5057203;28;20451;-64
2021/11/09 02:15:55;;;;;;;19.38;12.77;;;282.30;2048.00;;;;;;5056454;28;20056;-62
2021/11/09 02:26:03;;;;;;;15.43;11.52;;;282.30;2073.60;;;;;;5056750;28;20114;-62
2021/11/09 18:20:56;;;;;;;355.92;194.52;;;231.30;1971.20;;;;;;4823097;27;20135;-61
2021/11/09 18:23:22;;;;;;;264.52;132.57;;;231.20;1996.80;;;;;;4901444;29;20037;-64
2021/11/09 18:25:48;;;;;;;247.57;122.90;;;231.20;2022.40;;;;;;4901437;29;20039;-64
2021/11/09 18:28:14;;;;;;;243.05;124.15;;;231.20;2022.40;;;;;;4901275;29;20378;-64
2021/11/09 18:30:46;;;;;;;236.60;121.80;;;231.20;2022.40;;;;;;4901740;29;20433;-64
2021/11/09 18:33:13;;;;;;;296.00;150.50;;;231.20;1996.80;;;;;;4884728;29;20028;-64
2021/11/09 18:35:40;;;;;;;277.77;153.43;;;231.20;1971.20;;;;;;4901403;29;20021;-61
2021/11/09 18:38:11;;;;;;;296.77;162.02;;;231.20;1971.20;;;;;;4901104;29;20043;-64
2021/11/09 18:40:39;;;;;;;302.60;161.40;;;231.20;1996.80;;;;;;4901524;29;20039;-64
2021/11/09 18:43:07;;;;;;;373.13;181.95;;;231.20;1996.80;;;;;;4901424;29;20036;-62
2021/11/09 18:45:33;;;;;;;512.38;245.77;;;231.10;1996.80;;;;;;4901141;29;20028;-62
2021/11/09 18:47:59;;;;;;;413.80;202.98;;;231.10;1996.80;;;;;;4899488;29;20028;-63
2021/11/09 18:50:29;;;;;;;387.10;194.73;;;231.00;1996.80;;;;;;4899885;29;20028;-63
2021/11/09 18:52:56;;;;;;;373.52;187.05;;;231.00;2022.40;;;;;;4899658;29;20028;-61
2021/11/09 18:55:22;;;;;;;367.55;188.38;;;231.00;2022.40;;;;;;4882415;29;20087;-61
2021/11/09 18:57:49;;;;;;;382.90;192.70;;;231.00;2022.40;;;;;;4899109;29;20523;-63
2021/11/09 19:00:17;;;;;;;484.02;260.63;;;231.00;1996.80;;;;;;4896517;29;20041;-62
2021/11/09 19:02:43;;;;;;;475.83;242.70;;;231.00;1971.20;;;;;;4898219;29;20038;-64
2021/11/09 19:05:17;;;;;;;392.67;193.90;;;231.00;1971.20;;;;;;4900689;29;20020;-63
2021/11/09 19:07:43;;;;;;;392.00;190.03;;;231.00;1945.60;;;;;;4903926;29;20040;-63
2021/11/09 19:10:10;;;;;;;351.65;172.55;;;231.00;1920.00;;;;;;4907983;29;20039;-63
2021/11/09 19:12:37;;;;;;;336.75;162.35;;;231.00;1920.00;;;;;;4908445;29;20036;-63
2021/11/09 19:15:06;;;;;;;337.60;156.02;;;230.90;1894.40;;;;;;4904102;29;20024;-62
2021/11/09 19:17:32;;;;;;;291.90;143.73;;;230.90;1920.00;;;;;;4907159;29;20036;-62
2021/11/09 19:19:57;;;;;;;286.73;145.32;;;230.90;1920.00;;;;;;4908569;29;20075;-65
2021/11/09 19:22:23;;;;;;;309.85;158.05;;;230.90;1894.40;;;;;;4906393;29;20052;-64
2021/11/09 19:24:49;;;;;;;312.08;158.75;;;230.80;1920.00;;;;;;4907644;29;20024;-62
2021/11/09 19:27:15;;;;;;;307.05;155.73;;;230.80;1920.00;;;;;;4905698;29;20115;-65
2021/11/09 19:29:42;;;;;;;288.63;150.85;;;230.80;1894.40;;;;;;4897236;29;20036;-65
2021/11/09 19:32:08;;;;;;;285.85;151.57;;;230.80;1920.00;;;;;;4898143;29;20111;-64
2021/11/09 19:34:34;;;;;;;291.25;146.95;;;230.70;1971.20;;;;;;4898034;29;20112;-62
2021/11/09 19:37:01;;;;;;;280.70;149.82;;;230.70;1945.60;;;;;;4897611;29;20034;-62
2021/11/09 19:39:27;;;;;;;297.77;152.80;;;230.70;1920.00;;;;;;4897959;29;20017;-61
2021/11/09 19:41:53;;;;;;;326.05;166.88;;;230.70;1920.00;;;;;;4898106;29;20040;-65
2021/11/09 19:44:19;;;;;;;325.92;168.02;;;230.70;1945.60;;;;;;4896926;29;20025;-64
2021/11/09 19:46:49;;;;;;;321.98;167.95;;;230.60;1945.60;;;;;;4896547;29;20061;-63
2021/11/09 19:49:18;;;;;;;362.50;182.48;;;230.60;1920.00;;;;;;4897565;29;20115;-64
2021/11/09 19:51:46;;;;;;;469.98;236.60;;;230.60;1920.00;;;;;;4897401;29;20033;-64
2021/11/09 19:54:15;;;;;;;422.42;212.25;;;230.60;1945.60;;;;;;4897807;29;20017;-65
2021/11/09 19:56:43;;;;;;;426.35;209.57;;;230.60;1945.60;;;;;;4897628;29;20491;-65
2021/11/09 19:59:13;;;;;;;396.52;192.45;;;230.60;1920.00;;;;;;4896866;29;20025;-63
2021/11/09 20:01:40;;;;;;;333.60;154.60;;;230.60;1945.60;;;;;;4895578;29;20033;-64
2021/11/09 20:04:07;;;;;;;341.23;155.05;;;230.60;1971.20;;;;;;4897870;29;20152;-61
2021/11/09 20:06:34;;;;;;;299.70;140.52;;;230.60;1920.00;;;;;;4896977;29;20035;-61
2021/11/09 20:09:01;;;;;;;337.70;160.10;;;230.60;1920.00;;;;;;4897631;29;20025;-65
2021/11/09 20:11:28;;;;;;;358.92;168.00;;;230.50;1971.20;;;;;;4897284;29;20036;-64
2021/11/09 20:13:57;;;;;;;338.90;159.05;;;230.50;1971.20;;;;;;4897143;29;20084;-62
2021/11/09 20:16:24;;;;;;;319.77;158.93;;;230.50;1945.60;;;;;;4897162;29;20033;-65
2021/11/09 20:18:51;;;;;;;331.52;165.23;;;230.50;1945.60;;;;;;4896834;29;20025;-65
2021/11/09 20:21:19;;;;;;;372.90;189.23;;;230.50;1945.60;;;;;;4896930;29;20431;-65
2021/11/09 20:23:45;;;;;;;360.15;190.88;;;230.40;1920.00;;;;;;4897320;29;20058;-62
2021/11/09 20:26:13;;;;;;;373.48;197.88;;;230.40;1920.00;;;;;;4897030;29;20111;-65
2021/11/09 20:28:40;;;;;;;306.63;146.88;;;230.40;1945.60;;;;;;4898267;29;20168;-64
2021/11/09 20:31:07;;;;;;;255.80;128.10;;;230.40;1971.20;;;;;;4896770;29;20625;-62
2021/11/09 20:33:38;;;;;;;231.48;110.95;;;230.40;1945.60;;;;;;4896872;29;20355;-64
2021/11/09 20:36:05;;;;;;;175.00;87.72;;;230.40;1996.80;;;;;;4905982;29;20032;-65
2021/11/09 20:38:33;;;;;;;166.77;87.32;;;230.40;1996.80;;;;;;4901941;29;20064;-63
2021/11/09 20:41:02;;;;;;;155.77;81.85;;;205.70;1945.60;;;;;;4898319;29;20459;-62
2021/11/09 20:43:28;;;;;;;157.32;79.00;;;230.40;1996.80;;;;;;4898741;29;20035;-62
2021/11/09 20:45:55;;;;;;;151.63;77.18;;;205.70;1996.80;;;;;;4899019;29;20033;-65
2021/11/09 20:48:21;;;;;;;157.80;81.97;;;205.70;1945.60;;;;;;4898761;29;20028;-65
2021/11/09 20:50:47;;;;;;;160.52;82.63;;;205.70;1971.20;;;;;;4898932;29;20107;-64
2021/11/09 20:53:13;;;;;;;150.75;80.68;;;230.40;2022.40;;;;;;4898853;29;20044;-63
2021/11/09 20:55:41;;;;;;;165.75;81.60;;;230.40;1971.20;;;;;;4899014;29;20055;-64
2021/11/09 20:58:10;;;;;;;156.40;81.60;;;230.50;1945.60;;;;;;4899014;29;20035;-64
2021/11/09 21:00:36;;;;;;;166.43;86.75;;;230.60;1945.60;;;;;;4899188;29;20475;-63
2021/11/09 21:03:02;;;;;;;170.20;84.30;;;230.60;1920.00;;;;;;4899147;29;20048;-62
2021/11/09 21:05:32;;;;;;;167.10;86.05;;;230.70;1920.00;;;;;;4898590;29;20469;-63
2021/11/09 21:07:59;;;;;;;161.73;86.85;;;230.70;1920.00;;;;;;4898768;29;20061;-62
2021/11/09 21:10:27;;;;;;;159.48;91.85;;;230.70;1894.40;;;;;;4898814;29;20039;-63
2021/11/09 21:18:24;;;;;;;272.63;139.35;;;230.80;1894.40;;;;;;4898954;29;20048;-63
2021/11/09 21:21:20;;;;;;;286.98;149.75;;;230.80;1894.40;;;;;;4898512;29;20503;-63
2021/11/09 21:23:49;;;;;;;331.08;172.88;;;230.80;1894.40;;;;;;4840954;29;20049;-62
2021/11/09 21:26:27;;;;;;;351.08;179.82;;;230.80;1868.80;;;;;;4841248;29;20040;-62
2021/11/09 21:36:40;;;;;;;250.73;131.07;;;230.80;1868.80;;;;;;4840306;29;20470;-62
2021/11/09 21:39:10;;;;;;;242.98;124.80;;;230.70;1868.80;;;;;;4839786;29;20038;-62
2021/11/09 21:41:36;;;;;;;217.18;116.15;;;230.80;1868.80;;;;;;4838677;29;20431;-63
2021/11/09 21:44:03;;;;;;;202.63;108.63;;;230.70;1868.80;;;;;;4839466;29;20105;-62
2021/11/09 21:46:28;;;;;;;182.27;100.82;;;230.80;1868.80;;;;;;4839738;29;20574;-62
2021/11/09 21:48:54;;;;;;;185.63;99.63;;;230.70;1868.80;;;;;;4839804;29;20029;-62
2021/11/09 21:51:20;;;;;;;166.20;93.15;;;230.80;1843.20;;;;;;4829930;29;20045;-62
2021/11/09 21:53:46;;;;;;;166.43;94.38;;;230.80;1843.20;;;;;;4832642;29;20091;-62
2021/11/09 21:56:12;;;;;;;165.65;93.50;;;230.80;1843.20;;;;;;4835505;29;20030;-62
2021/11/09 21:58:38;;;;;;;169.18;93.35;;;230.80;1868.80;;;;;;4836627;29;20467;-62
2021/11/09 22:01:03;;;;;;;170.10;95.47;;;230.80;1843.20;;;;;;4896120;29;20045;-63
2021/11/09 22:03:29;;;;;;;184.70;97.03;;;230.80;1843.20;;;;;;4901265;29;20064;-62
2021/11/09 22:05:55;;;;;;;194.77;104.55;;;230.80;1843.20;;;;;;4901296;29;20033;-62
2021/11/09 22:08:22;;;;;;;220.35;113.18;;;230.80;1843.20;;;;;;4900784;29;20032;-63
2021/11/09 22:10:48;;;;;;;250.27;127.88;;;230.70;1843.20;;;;;;4915308;29;20032;-62
2021/11/09 22:13:14;;;;;;;294.75;143.30;;;230.70;1868.80;;;;;;4900851;29;20485;-62
2021/11/09 22:15:40;;;;;;;281.08;141.70;;;230.70;1868.80;;;;;;4900924;29;20103;-63
2021/11/09 22:18:06;;;;;;;266.20;136.90;;;230.80;1868.80;;;;;;4905263;29;20176;-62
2021/11/09 22:20:33;;;;;;;245.18;128.82;;;230.80;1843.20;;;;;;4884504;29;20045;-63
2021/11/09 22:22:59;;;;;;;236.20;124.10;;;230.80;1843.20;;;;;;4901570;29;20033;-63
2021/11/09 22:25:26;;;;;;;218.30;119.25;;;230.80;1843.20;;;;;;4901583;29;20465;-63
2021/11/09 22:27:51;;;;;;;207.13;113.00;;;230.80;1843.20;;;;;;4901633;29;20041;-63
2021/11/09 22:30:17;;;;;;;198.32;110.80;;;230.70;1843.20;;;;;;4901489;29;20035;-63
2021/11/09 22:32:43;;;;;;;202.50;107.35;;;230.80;1868.80;;;;;;4901495;29;20084;-63
2021/11/09 22:35:10;;;;;;;195.45;104.75;;;230.70;1868.80;;;;;;4901261;29;20044;-63
2021/11/09 22:37:35;;;;;;;181.32;100.85;;;230.80;1868.80;;;;;;4901515;29;20052;-63
2021/11/09 22:40:04;;;;;;;177.18;95.82;;;230.80;1868.80;;;;;;4901277;29;20029;-63
2021/11/09 22:42:29;;;;;;;159.85;88.80;;;230.80;1868.80;;;;;;4901365;29;20110;-63
2021/11/09 22:44:55;;;;;;;157.55;88.63;;;230.80;1868.80;;;;;;4901576;29;20038;-63
2021/11/09 22:47:21;;;;;;;142.95;81.05;;;230.80;1868.80;;;;;;4901292;29;20036;-64
2021/11/09 22:49:47;;;;;;;141.65;77.43;;;230.80;1868.80;;;;;;4900725;29;20424;-64
2021/11/09 22:52:12;;;;;;;139.32;74.60;;;230.80;1868.80;;;;;;4901213;29;20043;-63
2021/11/09 22:54:38;;;;;;;128.90;70.32;;;230.90;1868.80;;;;;;4901303;29;20072;-63
2021/11/09 22:57:04;;;;;;;112.88;65.43;;;230.80;1868.80;;;;;;4901116;29;20497;-63
2021/11/09 22:59:30;;;;;;;115.43;66.35;;;230.80;1868.80;;;;;;4900790;29;20541;-63
2021/11/09 23:01:55;;;;;;;113.53;63.50;;;230.80;1868.80;;;;;;4900814;29;20039;-63
2021/11/09 23:04:21;;;;;;;103.72;59.50;;;230.80;1868.80;;;;;;4899884;29;20041;-63
2021/11/09 23:06:47;;;;;;;109.28;61.00;;;230.80;1868.80;;;;;;4900734;29;20493;-62
2021/11/09 23:09:13;;;;;;;100.95;60.13;;;230.80;1868.80;;;;;;4900814;29;20047;-63
2021/11/09 23:11:39;;;;;;;102.93;59.30;;;230.80;1868.80;;;;;;4900886;29;20039;-63
2021/11/09 23:14:05;;;;;;;97.35;57.58;;;230.80;1868.80;;;;;;4900556;29;20092;-63
2021/11/09 23:16:31;;;;;;;98.35;58.72;;;230.80;1843.20;;;;;;4900736;29;20040;-63
2021/11/09 23:18:57;;;;;;;103.22;59.70;;;230.80;1843.20;;;;;;4900021;29;20035;-63
2021/11/09 23:21:23;;;;;;;117.63;63.28;;;230.80;1843.20;;;;;;4900584;29;20048;-63
2021/11/09 23:23:49;;;;;;;108.20;63.58;;;230.70;1843.20;;;;;;4900622;29;20033;-62
2021/11/09 23:26:14;;;;;;;117.28;67.82;;;230.70;1843.20;;;;;;4900695;29;20368;-63
2021/11/09 23:28:40;;;;;;;128.13;67.45;;;230.80;1843.20;;;;;;4900580;29;20607;-63
2021/11/09 23:31:06;;;;;;;125.47;68.68;;;230.70;1843.20;;;;;;4900616;29;20375;-63
2021/11/09 23:33:32;;;;;;;128.43;67.43;;;230.70;1843.20;;;;;;4900414;29;20027;-63
2021/11/09 23:35:58;;;;;;;121.25;68.53;;;230.70;1843.20;;;;;;4900188;29;20497;-63
2021/11/09 23:38:24;;;;;;;127.25;69.50;;;230.70;1843.20;;;;;;4900097;29;20044;-63
2021/11/09 23:40:49;;;;;;;126.13;69.07;;;230.60;1843.20;;;;;;4900316;29;20033;-63
2021/11/09 23:43:16;;;;;;;120.18;68.32;;;230.70;1868.80;;;;;;4900543;29;20033;-63
2021/11/09 23:45:41;;;;;;;130.73;71.80;;;230.60;1843.20;;;;;;4900333;29;20382;-64
2021/11/09 23:48:07;;;;;;;136.20;76.32;;;230.60;1843.20;;;;;;4900161;29;20028;-63
2021/11/09 23:50:33;;;;;;;144.35;79.78;;;230.70;1843.20;;;;;;4899970;29;20024;-63
2021/11/09 23:53:00;;;;;;;151.20;82.35;;;230.60;1817.60;;;;;;4899869;29;20111;-62
2021/11/09 23:55:28;;;;;;;168.57;87.78;;;230.60;1843.20;;;;;;4900147;29;20386;-63
2021/11/09 23:57:55;;;;;;;167.55;95.13;;;230.60;1843.20;;;;;;4899945;29;20371;-63
